Time;durP1;ratioP1;P1;durP2;ratioP2;P2;SDS_P1;SDS_P2;PMS_P1;PMS_P2;Temp;Humidity;BMP_temperature;BMP_pressure;BME280_temperature;BME280_humidity;BME280_pressure;Samples;Min_cycle;Max_cycle;Signal;HPM_P1;HPM_P2
2022/07/27 00:00:01;;;;;;;186.93;28.48;;;;;;;-144.27;100.00;69759.91;2057860;28;20277;-72
2022/07/27 00:01:02;;;;;;;174.13;30.93;;;;;;;-144.27;100.00;69759.91;2066379;28;20200;-73
2022/07/27 00:02:04;;;;;;;116.38;29.38;;;;;;;-144.27;100.00;69759.91;2066544;28;20189;-73
2022/07/27 00:03:06;;;;;;;132.35;27.75;;;;;;;-144.27;100.00;69759.91;2066324;28;20522;-73
2022/07/27 00:04:07;;;;;;;135.43;28.90;;;;;;;-144.27;100.00;69759.91;2057627;28;20672;-73
2022/07/27 00:05:11;;;;;;;150.70;28.83;;;;;;;-144.27;100.00;69759.91;2058000;28;20190;-73
2022/07/27 00:06:13;;;;;;;169.40;29.20;;;;;;;-144.27;100.00;69759.91;2057084;28;20237;-73
2022/07/27 00:07:15;;;;;;;143.40;27.40;;;;;;;-144.27;100.00;69759.91;2057861;28;20186;-73
2022/07/27 00:08:18;;;;;;;158.48;29.00;;;;;;;-144.27;100.00;69759.91;2066787;28;20186;-73
2022/07/27 00:09:21;;;;;;;143.20;26.50;;;;;;;-144.27;100.00;69759.91;2066348;28;20209;-72
2022/07/27 00:10:22;;;;;;;157.45;29.17;;;;;;;-144.27;100.00;69759.91;2066271;28;20335;-73
2022/07/27 00:11:24;;;;;;;101.78;27.25;;;;;;;-144.27;100.00;69759.91;2066270;28;20253;-73
2022/07/27 00:12:24;;;;;;;130.50;27.58;;;;;;;-144.27;100.00;69759.91;2066238;28;20564;-72
2022/07/27 00:13:26;;;;;;;95.60;26.50;;;;;;;-144.27;100.00;69759.91;2057618;28;20231;-73
2022/07/27 00:14:27;;;;;;;89.63;25.95;;;;;;;-144.27;100.00;69759.91;2057620;28;20194;-73
2022/07/27 00:15:28;;;;;;;77.80;27.47;;;;;;;-144.27;100.00;69759.91;2057520;28;20742;-73
2022/07/27 00:16:32;;;;;;;77.35;27.48;;;;;;;-144.27;100.00;69759.91;2057512;28;20253;-73
2022/07/27 00:17:34;;;;;;;79.13;25.52;;;;;;;-144.27;100.00;69759.91;2058236;28;20604;-73
2022/07/27 00:18:36;;;;;;;73.40;25.50;;;;;;;-144.27;100.00;69759.91;2057590;28;20208;-73
2022/07/27 00:19:37;;;;;;;76.88;27.90;;;;;;;-144.27;100.00;69759.91;2057629;28;20571;-72
2022/07/27 00:20:40;;;;;;;74.87;27.30;;;;;;;-144.27;100.00;69759.91;2057531;28;20206;-73
2022/07/27 00:21:42;;;;;;;47.17;26.85;;;;;;;-144.27;100.00;69759.91;2057404;28;20313;-73
2022/07/27 00:22:43;;;;;;;54.25;25.50;;;;;;;-144.27;100.00;69759.91;2057182;28;20582;-73
2022/07/27 00:23:45;;;;;;;47.35;25.45;;;;;;;-144.27;100.00;69759.91;2057601;28;20276;-73
2022/07/27 00:24:47;;;;;;;45.25;26.40;;;;;;;-144.27;100.00;69759.91;2057530;28;20198;-73
2022/07/27 00:25:52;;;;;;;51.22;26.27;;;;;;;-144.27;100.00;69759.91;2057646;28;20182;-73
2022/07/27 00:26:53;;;;;;;42.83;26.03;;;;;;;-144.27;100.00;69759.91;2058204;28;20181;-74
2022/07/27 00:27:55;;;;;;;50.45;27.27;;;;;;;-144.27;100.00;69759.91;2057426;28;20205;-73
2022/07/27 00:28:57;;;;;;;52.33;27.13;;;;;;;-144.27;100.00;69759.91;2057488;28;20189;-73
2022/07/27 00:29:57;;;;;;;43.25;25.73;;;;;;;-144.27;100.00;69759.91;2057457;28;20209;-73
2022/07/27 00:31:00;;;;;;;42.17;26.07;;;;;;;-144.27;100.00;69759.91;2057277;28;20232;-73
2022/07/27 00:32:02;;;;;;;40.55;25.20;;;;;;;-144.27;100.00;69759.91;2056875;28;20256;-73
2022/07/27 00:33:04;;;;;;;43.78;26.70;;;;;;;-144.27;100.00;69759.91;2057529;28;20182;-73
2022/07/27 00:34:06;;;;;;;49.63;24.77;;;;;;;-144.27;100.00;69759.91;2057458;28;20202;-73
2022/07/27 00:35:08;;;;;;;43.90;26.33;;;;;;;-144.27;100.00;69759.91;2057718;28;20194;-73
2022/07/27 00:36:10;;;;;;;55.45;27.20;;;;;;;-144.27;100.00;69759.91;2057716;28;20190;-73
2022/07/27 00:37:13;;;;;;;40.67;25.88;;;;;;;-144.27;100.00;69759.91;2057072;28;20624;-73
2022/07/27 00:38:17;;;;;;;47.83;26.35;;;;;;;-144.27;100.00;69759.91;2057504;28;20217;-73
2022/07/27 00:39:18;;;;;;;48.88;26.17;;;;;;;-144.27;100.00;69759.91;2058159;28;20243;-73
2022/07/27 00:40:19;;;;;;;49.27;24.63;;;;;;;-144.27;100.00;69759.91;2057411;28;20198;-73
2022/07/27 00:41:20;;;;;;;48.60;26.45;;;;;;;-144.27;100.00;69759.91;2057215;28;20252;-73
2022/07/27 00:42:26;;;;;;;50.13;25.90;;;;;;;-144.27;100.00;69759.91;2058161;28;20641;-73
2022/07/27 00:43:27;;;;;;;53.83;24.48;;;;;;;-144.27;100.00;69759.91;2057429;28;20214;-73
2022/07/27 00:44:32;;;;;;;43.97;23.53;;;;;;;-144.27;100.00;69759.91;2057465;28;20194;-73
2022/07/27 00:45:35;;;;;;;42.72;25.10;;;;;;;-144.27;100.00;69759.91;2058058;28;20186;-72
2022/07/27 00:46:37;;;;;;;44.55;24.35;;;;;;;-144.27;100.00;69759.91;2057379;28;20205;-72
2022/07/27 00:47:38;;;;;;;41.88;23.48;;;;;;;-144.27;100.00;69759.91;2057462;28;20197;-73
2022/07/27 00:48:40;;;;;;;38.27;22.20;;;;;;;-144.27;100.00;69759.91;2058022;28;20679;-72
2022/07/27 00:49:40;;;;;;;33.75;22.33;;;;;;;-144.27;100.00;69759.91;2057930;28;20292;-72
2022/07/27 00:50:43;;;;;;;33.50;22.30;;;;;;;-144.27;100.00;69759.91;2058101;28;20200;-74
2022/07/27 00:51:44;;;;;;;31.10;20.42;;;;;;;-144.27;100.00;69759.91;2057887;28;20701;-72
2022/07/27 00:52:47;;;;;;;33.63;20.03;;;;;;;-144.27;100.00;69759.91;2057546;28;20737;-72
2022/07/27 00:53:48;;;;;;;27.08;18.95;;;;;;;-144.27;100.00;69759.91;2057275;28;20472;-72
2022/07/27 00:54:51;;;;;;;26.90;19.23;;;;;;;-144.27;100.00;69759.91;2057511;28;20182;-73
2022/07/27 00:55:53;;;;;;;24.20;17.83;;;;;;;-144.27;100.00;69759.91;2058167;28;20247;-72
2022/07/27 00:56:54;;;;;;;24.75;18.58;;;;;;;-144.27;100.00;69759.91;2058018;28;20672;-73
2022/07/27 00:57:56;;;;;;;27.57;19.20;;;;;;;-144.27;100.00;69759.91;2058198;28;20549;-74
2022/07/27 00:58:57;;;;;;;27.83;17.17;;;;;;;-144.27;100.00;69759.91;2057264;28;20197;-73
2022/07/27 00:59:58;;;;;;;23.23;17.37;;;;;;;-144.27;100.00;69759.91;2057377;28;20277;-74
2022/07/27 01:00:59;;;;;;;24.10;17.70;;;;;;;-144.27;100.00;69759.91;2058046;28;20468;-73
2022/07/27 01:02:01;;;;;;;22.67;17.17;;;;;;;-144.27;100.00;69759.91;2057960;28;20194;-73
2022/07/27 01:03:03;;;;;;;19.95;15.40;;;;;;;-144.27;100.00;69759.91;2058063;28;20200;-73
2022/07/27 01:04:05;;;;;;;21.77;15.77;;;;;;;-144.27;100.00;69759.91;2057968;28;20780;-73
2022/07/27 01:05:06;;;;;;;21.20;15.13;;;;;;;-144.27;100.00;69759.91;2057269;28;20237;-74
2022/07/27 01:06:08;;;;;;;20.25;15.95;;;;;;;-144.27;100.00;69759.91;2056805;28;20213;-72
2022/07/27 01:07:10;;;;;;;18.92;15.65;;;;;;;-144.27;100.00;69759.91;2058042;28;20182;-72
2022/07/27 01:08:13;;;;;;;18.02;14.77;;;;;;;-144.27;100.00;69759.91;2058017;28;20200;-73
2022/07/27 01:10:34;;;;;;;20.70;14.88;;;;;;;-144.27;100.00;69759.91;2058409;28;20213;-72
2022/07/27 01:11:35;;;;;;;18.75;14.18;;;;;;;-144.27;100.00;69759.91;2057992;28;20276;-72
2022/07/27 01:12:38;;;;;;;17.57;14.57;;;;;;;-144.27;100.00;69759.91;2057861;28;20202;-73
2022/07/27 01:13:41;;;;;;;19.65;13.65;;;;;;;-144.27;100.00;69759.91;2057893;28;20202;-73
2022/07/27 01:14:43;;;;;;;15.40;13.13;;;;;;;-144.27;100.00;69759.91;2057114;28;20193;-73
2022/07/27 01:15:43;;;;;;;19.90;14.00;;;;;;;-144.27;100.00;69759.91;2057612;28;20229;-73
2022/07/27 01:16:45;;;;;;;16.57;13.90;;;;;;;-144.27;100.00;69759.91;2063909;28;20289;-72
2022/07/27 01:17:47;;;;;;;17.25;13.18;;;;;;;-144.27;100.00;69759.91;2057221;28;20288;-73
2022/07/27 01:18:48;;;;;;;18.45;13.50;;;;;;;-144.27;100.00;69759.91;2057362;28;20617;-73
2022/07/27 01:19:51;;;;;;;17.05;13.27;;;;;;;-144.27;100.00;69759.91;2065852;28;20200;-72
2022/07/27 01:20:52;;;;;;;18.60;13.65;;;;;;;-144.27;100.00;69759.91;2056640;28;20703;-73
2022/07/27 01:21:55;;;;;;;17.37;13.57;;;;;;;-144.27;100.00;69759.91;2057281;28;20634;-72
2022/07/27 01:22:55;;;;;;;16.25;12.98;;;;;;;-144.27;100.00;69759.91;2065851;28;20242;-73
2022/07/27 01:23:57;;;;;;;21.60;13.37;;;;;;;-144.27;100.00;69759.91;2065696;28;20197;-73
2022/07/27 01:24:58;;;;;;;19.38;13.65;;;;;;;-144.27;100.00;69759.91;2065241;28;20196;-73
2022/07/27 01:26:01;;;;;;;15.03;12.60;;;;;;;-144.27;100.00;69759.91;2066021;28;20185;-72
2022/07/27 01:27:04;;;;;;;19.00;13.80;;;;;;;-144.27;100.00;69759.91;2065844;28;20197;-72
2022/07/27 01:28:05;;;;;;;17.67;13.02;;;;;;;-144.27;100.00;69759.91;2065950;28;20181;-72
2022/07/27 01:29:06;;;;;;;19.08;13.98;;;;;;;-144.27;100.00;69759.91;2057224;28;20679;-72
2022/07/27 01:30:25;;;;;;;17.33;12.97;;;;;;;-144.27;100.00;69759.91;2057282;28;20568;-72
2022/07/27 01:31:26;;;;;;;17.95;13.60;;;;;;;-144.27;100.00;69759.91;2065834;28;20187;-72
2022/07/27 01:32:29;;;;;;;23.35;13.45;;;;;;;-144.27;100.00;69759.91;2065872;28;20200;-72
2022/07/27 01:33:30;;;;;;;15.02;13.10;;;;;;;-144.27;100.00;69759.91;2065822;28;20279;-72
2022/07/27 01:34:33;;;;;;;15.27;13.30;;;;;;;-144.27;100.00;69759.91;2065826;28;20197;-73
2022/07/27 01:35:34;;;;;;;14.63;12.77;;;;;;;-144.27;100.00;69759.91;2057136;28;20197;-72
2022/07/27 01:36:36;;;;;;;18.75;12.93;;;;;;;-144.27;100.00;69759.91;2056901;28;20228;-72
2022/07/27 01:37:38;;;;;;;18.00;13.02;;;;;;;-144.27;100.00;69759.91;2065782;28;20243;-72
2022/07/27 01:38:39;;;;;;;16.13;13.43;;;;;;;-144.27;100.00;69759.91;2057335;28;20668;-72
2022/07/27 01:39:42;;;;;;;18.67;13.82;;;;;;;-144.27;100.00;69759.91;2057114;28;20550;-72
2022/07/27 01:40:43;;;;;;;20.65;13.63;;;;;;;-144.27;100.00;69759.91;2065235;28;20239;-73
2022/07/27 01:41:45;;;;;;;17.20;13.38;;;;;;;-144.27;100.00;69759.91;2066114;28;20229;-72
2022/07/27 01:42:46;;;;;;;23.67;14.02;;;;;;;-144.27;100.00;69759.91;2066068;28;20196;-73
2022/07/27 01:43:47;;;;;;;15.73;13.32;;;;;;;-144.27;100.00;69759.91;2067436;28;20671;-73
2022/07/27 01:44:49;;;;;;;15.20;13.20;;;;;;;-144.27;100.00;69759.91;2058728;28;20585;-72
2022/07/27 01:45:50;;;;;;;18.05;13.63;;;;;;;-144.27;100.00;69759.91;2058874;28;20560;-73
2022/07/27 01:46:52;;;;;;;17.95;12.95;;;;;;;-144.27;100.00;69759.91;2059082;28;20193;-72
2022/07/27 01:47:53;;;;;;;20.15;13.73;;;;;;;-144.27;100.00;69759.91;2059133;28;20586;-73
2022/07/27 01:48:55;;;;;;;18.80;15.00;;;;;;;-144.27;100.00;69759.91;2067523;28;20185;-73
2022/07/27 01:49:56;;;;;;;17.80;14.15;;;;;;;-144.27;100.00;69759.91;2058660;28;20307;-73
2022/07/27 01:50:57;;;;;;;19.57;15.10;;;;;;;-144.27;100.00;69759.91;2058251;28;20190;-74
2022/07/27 01:51:58;;;;;;;16.13;14.38;;;;;;;-144.27;100.00;69759.91;2058692;28;20217;-74
2022/07/27 01:53:03;;;;;;;22.77;15.00;;;;;;;-144.27;100.00;69759.91;2058714;28;20221;-74
2022/07/27 01:54:04;;;;;;;18.60;14.85;;;;;;;-144.27;100.00;69759.91;2067724;28;20193;-74
2022/07/27 01:55:08;;;;;;;20.42;15.35;;;;;;;-144.27;100.00;69759.91;2058569;28;20202;-73
2022/07/27 01:56:10;;;;;;;19.63;15.80;;;;;;;-144.27;100.00;69759.91;2058627;28;20229;-73
2022/07/27 01:57:11;;;;;;;28.42;18.25;;;;;;;-144.27;100.00;69759.91;2058956;28;20288;-72
2022/07/27 01:58:12;;;;;;;28.73;19.60;;;;;;;-144.27;100.00;69759.91;2066737;28;20217;-75
2022/07/27 01:59:14;;;;;;;25.70;18.85;;;;;;;-144.27;100.00;69759.91;2058964;28;20233;-73
2022/07/27 02:00:16;;;;;;;29.65;18.73;;;;;;;-144.27;100.00;69759.91;2059088;28;20277;-73
2022/07/27 02:01:18;;;;;;;24.20;18.15;;;;;;;-144.27;100.00;69759.91;2057935;28;20202;-73
2022/07/27 02:02:19;;;;;;;29.00;17.85;;;;;;;-144.27;100.00;69759.91;2059505;28;20189;-73
2022/07/27 02:03:20;;;;;;;27.63;18.70;;;;;;;-144.27;100.00;69759.91;2067264;28;20189;-73
2022/07/27 02:04:23;;;;;;;25.92;18.52;;;;;;;-144.27;100.00;69759.91;2058531;28;20293;-73
2022/07/27 02:05:25;;;;;;;29.23;19.88;;;;;;;-144.27;100.00;69759.91;2059485;28;20213;-74
2022/07/27 02:06:29;;;;;;;24.55;17.27;;;;;;;-144.27;100.00;69759.91;2066788;28;20225;-73
2022/07/27 02:07:32;;;;;;;27.48;17.25;;;;;;;-144.27;100.00;69759.91;2067668;28;20189;-73
2022/07/27 02:08:36;;;;;;;21.20;17.30;;;;;;;-144.27;100.00;69759.91;2058526;28;20292;-75
2022/07/27 02:09:36;;;;;;;21.65;16.23;;;;;;;-144.27;100.00;69759.91;2058089;28;20613;-74
2022/07/27 02:12:34;;;;;;;19.87;16.03;;;;;;;-144.27;100.00;69759.91;2058740;28;20198;-73
2022/07/27 02:13:19;;;;;;;27.92;17.23;;;;;;;-144.27;100.00;69759.91;2067191;28;20185;-72
2022/07/27 02:14:23;;;;;;;27.03;18.37;;;;;;;-144.27;100.00;69759.91;2067223;28;20192;-73
2022/07/27 02:15:26;;;;;;;28.60;18.27;;;;;;;-144.27;100.00;69759.91;2067116;28;20212;-73
2022/07/27 02:16:26;;;;;;;25.83;17.83;;;;;;;-144.27;100.00;69759.91;2067051;28;20236;-72
2022/07/27 02:17:28;;;;;;;34.93;17.90;;;;;;;-144.27;100.00;69759.91;2067307;28;20197;-73
2022/07/27 02:18:29;;;;;;;28.48;18.08;;;;;;;-144.27;100.00;69759.91;2067152;28;20221;-74
2022/07/27 02:19:30;;;;;;;27.33;18.57;;;;;;;-144.27;100.00;69759.91;2067292;28;20196;-72
2022/07/27 02:20:31;;;;;;;26.27;18.60;;;;;;;-144.27;100.00;69759.91;2067363;28;20240;-73
2022/07/27 02:21:35;;;;;;;27.30;18.70;;;;;;;-144.27;100.00;69759.91;2057829;28;20593;-73
2022/07/27 02:22:36;;;;;;;24.90;17.35;;;;;;;-144.27;100.00;69759.91;2058780;28;20201;-73
2022/07/27 02:23:39;;;;;;;24.20;18.77;;;;;;;-144.27;100.00;69759.91;2058112;28;20260;-73
2022/07/27 02:24:40;;;;;;;23.63;18.58;;;;;;;-144.27;100.00;69759.91;2058764;28;20209;-73
2022/07/27 02:25:42;;;;;;;26.97;16.93;;;;;;;-144.27;100.00;69759.91;2066681;28;20185;-73
2022/07/27 02:26:42;;;;;;;27.83;17.83;;;;;;;-144.27;100.00;69759.91;2067072;28;20185;-73
2022/07/27 02:27:44;;;;;;;28.53;17.37;;;;;;;-144.27;100.00;69759.91;2067105;28;20197;-73
2022/07/27 02:28:47;;;;;;;27.15;16.98;;;;;;;-144.27;100.00;69759.91;2067188;28;20193;-74
2022/07/27 02:29:50;;;;;;;28.70;16.08;;;;;;;-144.27;100.00;69759.91;2067113;28;20189;-74
2022/07/27 02:30:50;;;;;;;23.20;16.75;;;;;;;-144.27;100.00;69759.91;2067120;28;20185;-73
2022/07/27 02:31:52;;;;;;;18.87;15.70;;;;;;;-144.27;100.00;69759.91;2067240;28;20185;-73
2022/07/27 02:32:52;;;;;;;21.55;16.23;;;;;;;-144.27;100.00;69759.91;2067252;28;20196;-72
2022/07/27 02:33:54;;;;;;;21.77;15.73;;;;;;;-144.27;100.00;69759.91;2058278;28;20201;-73
2022/07/27 02:34:57;;;;;;;23.05;14.63;;;;;;;-144.27;100.00;69759.91;2058276;28;20334;-73
2022/07/27 02:35:59;;;;;;;19.45;15.15;;;;;;;-144.27;100.00;69759.91;2058190;28;20210;-73
2022/07/27 02:37:00;;;;;;;18.17;14.38;;;;;;;-144.27;100.00;69759.91;2067314;28;20663;-74
2022/07/27 02:38:01;;;;;;;19.33;14.10;;;;;;;-144.27;100.00;69759.91;2067103;28;20717;-73
2022/07/27 02:39:03;;;;;;;19.05;14.70;;;;;;;-144.27;100.00;69759.91;2067011;28;20224;-72
2022/07/27 02:40:07;;;;;;;17.33;14.40;;;;;;;-144.27;100.00;69759.91;2066989;28;20193;-73
2022/07/27 02:41:08;;;;;;;24.38;15.85;;;;;;;-144.27;100.00;69759.91;2066999;28;20193;-72
2022/07/27 02:42:15;;;;;;;20.25;13.95;;;;;;;-144.27;100.00;69759.91;2066997;28;20181;-72
2022/07/27 02:43:16;;;;;;;19.58;14.25;;;;;;;-144.27;100.00;69759.91;2066992;28;20200;-73
2022/07/27 02:44:19;;;;;;;19.43;13.10;;;;;;;-144.27;100.00;69759.91;2058275;28;20305;-75
2022/07/27 02:45:20;;;;;;;17.13;13.18;;;;;;;-144.27;100.00;69759.91;2058591;28;20354;-73
2022/07/27 02:46:22;;;;;;;16.75;13.55;;;;;;;-144.27;100.00;69759.91;2067022;28;20185;-72
2022/07/27 02:47:22;;;;;;;19.45;12.90;;;;;;;-144.27;100.00;69759.91;2058222;28;20216;-72
2022/07/27 02:48:24;;;;;;;16.60;13.20;;;;;;;-144.27;100.00;69759.91;2057902;28;20216;-73
2022/07/27 02:49:25;;;;;;;17.50;12.85;;;;;;;-144.27;100.00;69759.91;2067266;28;20606;-72
2022/07/27 02:50:27;;;;;;;20.20;13.38;;;;;;;-144.27;100.00;69759.91;2058198;28;20221;-73
2022/07/27 02:51:28;;;;;;;19.02;12.82;;;;;;;-144.27;100.00;69759.91;2050036;28;20697;-72
2022/07/27 02:52:29;;;;;;;19.07;13.17;;;;;;;-144.27;100.00;69759.91;2058334;28;20277;-73
2022/07/27 02:53:30;;;;;;;17.83;13.73;;;;;;;-144.27;100.00;69759.91;2066990;28;20225;-73
2022/07/27 02:54:34;;;;;;;18.90;13.93;;;;;;;-144.27;100.00;69759.91;2066777;28;20189;-73
2022/07/27 02:55:34;;;;;;;14.95;13.43;;;;;;;-144.27;100.00;69759.91;2066975;28;20200;-75
2022/07/27 02:56:36;;;;;;;16.87;13.87;;;;;;;-144.27;100.00;69759.91;2067560;28;20173;-73
2022/07/27 02:57:40;;;;;;;16.55;13.80;;;;;;;-144.27;100.00;69759.91;2066859;28;20193;-73
2022/07/27 02:58:41;;;;;;;21.05;13.43;;;;;;;-144.27;100.00;69759.91;2058150;28;20561;-72
2022/07/27 02:59:43;;;;;;;17.00;12.27;;;;;;;-144.27;100.00;69759.91;2058586;28;20241;-74
2022/07/27 03:00:43;;;;;;;17.55;13.38;;;;;;;-144.27;100.00;69759.91;2058308;28;20661;-72
2022/07/27 03:01:45;;;;;;;17.10;13.27;;;;;;;-144.27;100.00;69759.91;2067447;28;20181;-72
2022/07/27 03:02:48;;;;;;;18.15;12.98;;;;;;;-144.27;100.00;69759.91;2058109;28;20264;-74
2022/07/27 03:03:52;;;;;;;15.13;12.35;;;;;;;-144.27;100.00;69759.91;2058486;28;20653;-73
2022/07/27 03:04:53;;;;;;;16.95;13.10;;;;;;;-144.27;100.00;69759.91;2067304;28;20280;-73
2022/07/27 03:05:54;;;;;;;16.33;12.73;;;;;;;-144.27;100.00;69759.91;2066303;28;20196;-73
2022/07/27 03:06:55;;;;;;;19.05;12.93;;;;;;;-144.27;100.00;69759.91;2058730;28;20213;-72
2022/07/27 03:07:57;;;;;;;18.07;13.17;;;;;;;-144.27;100.00;69759.91;2058206;28;20194;-73
2022/07/27 03:08:57;;;;;;;17.65;12.77;;;;;;;-144.27;100.00;69759.91;2067128;28;20196;-73
2022/07/27 03:10:02;;;;;;;17.53;13.07;;;;;;;-144.27;100.00;69759.91;2067205;28;20276;-73
2022/07/27 03:11:04;;;;;;;16.08;13.73;;;;;;;-144.27;100.00;69759.91;2066772;28;20189;-74
2022/07/27 03:12:06;;;;;;;16.85;13.45;;;;;;;-144.27;100.00;69759.91;2066767;28;20189;-72
2022/07/27 03:13:07;;;;;;;15.98;13.07;;;;;;;-144.27;100.00;69759.91;2066740;28;20228;-73
2022/07/27 03:14:08;;;;;;;20.67;13.90;;;;;;;-144.27;100.00;69759.91;2058015;28;20202;-73
2022/07/27 03:15:10;;;;;;;18.05;14.25;;;;;;;-144.27;100.00;69759.91;2058230;28;20308;-74
2022/07/27 03:16:11;;;;;;;19.23;13.60;;;;;;;-144.27;100.00;69759.91;2057868;28;20209;-72
2022/07/27 03:17:13;;;;;;;18.13;13.40;;;;;;;-144.27;100.00;69759.91;2058111;28;20545;-72
2022/07/27 03:18:16;;;;;;;16.52;13.20;;;;;;;-144.27;100.00;69759.91;2066714;28;20208;-73
2022/07/27 03:19:17;;;;;;;18.67;14.07;;;;;;;-144.27;100.00;69759.91;2058000;28;20684;-72
2022/07/27 03:20:19;;;;;;;19.17;14.57;;;;;;;-144.27;100.00;69759.91;2058141;28;20529;-72
2022/07/27 03:21:19;;;;;;;19.67;13.52;;;;;;;-144.27;100.00;69759.91;2066404;28;20718;-72
2022/07/27 03:22:21;;;;;;;20.57;13.37;;;;;;;-144.27;100.00;69759.91;2066715;28;20590;-72
2022/07/27 03:23:24;;;;;;;20.52;14.88;;;;;;;-144.27;100.00;69759.91;2057953;28;20205;-75
2022/07/27 03:24:25;;;;;;;17.55;13.18;;;;;;;-144.27;100.00;69759.91;2058214;28;20289;-73
2022/07/27 03:25:29;;;;;;;18.33;13.73;;;;;;;-144.27;100.00;69759.91;2057984;28;20194;-73
2022/07/27 03:26:31;;;;;;;17.13;13.20;;;;;;;-144.27;100.00;69759.91;2058272;28;20194;-73
2022/07/27 03:27:32;;;;;;;17.15;13.88;;;;;;;-144.27;100.00;69759.91;2066644;28;20189;-72
2022/07/27 03:28:33;;;;;;;16.83;13.48;;;;;;;-144.27;100.00;69759.91;2058002;28;20201;-74
2022/07/27 03:29:35;;;;;;;16.57;13.83;;;;;;;-144.27;100.00;69759.91;2057915;28;20224;-73
2022/07/27 03:30:35;;;;;;;18.50;14.20;;;;;;;-144.27;100.00;69759.91;2057787;28;20324;-74
2022/07/27 03:31:39;;;;;;;21.00;14.30;;;;;;;-144.27;100.00;69759.91;2066099;28;20188;-74
2022/07/27 03:32:40;;;;;;;15.40;13.32;;;;;;;-144.27;100.00;69759.91;2066618;28;20676;-73
2022/07/27 03:33:42;;;;;;;15.33;12.97;;;;;;;-144.27;100.00;69759.91;2057914;28;20640;-73
2022/07/27 03:34:42;;;;;;;19.58;14.35;;;;;;;-144.27;100.00;69759.91;2058217;28;20197;-73
2022/07/27 03:35:44;;;;;;;20.67;14.27;;;;;;;-144.27;100.00;69759.91;2057923;28;20748;-73
2022/07/27 03:36:46;;;;;;;22.70;13.93;;;;;;;-144.27;100.00;69759.91;2057701;28;20213;-73
2022/07/27 03:37:48;;;;;;;16.73;14.13;;;;;;;-144.27;100.00;69759.91;2066659;28;20284;-73
2022/07/27 03:38:50;;;;;;;17.25;13.38;;;;;;;-144.27;100.00;69759.91;2057824;28;20205;-73
2022/07/27 03:39:51;;;;;;;17.65;14.90;;;;;;;-144.27;100.00;69759.91;2057988;28;20190;-75
2022/07/27 03:40:54;;;;;;;16.13;12.87;;;;;;;-144.27;100.00;69759.91;2057769;28;20208;-73
2022/07/27 03:41:54;;;;;;;15.43;13.00;;;;;;;-144.27;100.00;69759.91;2057837;28;20197;-72
2022/07/27 03:42:56;;;;;;;17.73;13.47;;;;;;;-144.27;100.00;69759.91;2057923;28;20213;-72
2022/07/27 03:44:00;;;;;;;15.88;12.98;;;;;;;-144.27;100.00;69759.91;2057951;28;20205;-73
2022/07/27 03:45:03;;;;;;;16.60;13.47;;;;;;;-144.27;100.00;69759.91;2057931;28;20590;-73
2022/07/27 03:46:05;;;;;;;19.92;12.98;;;;;;;-144.27;100.00;69759.91;2057750;28;20581;-73
2022/07/27 03:47:06;;;;;;;13.50;12.17;;;;;;;-144.27;100.00;69759.91;2057763;28;20221;-73
2022/07/27 03:48:07;;;;;;;17.83;13.27;;;;;;;-144.27;100.00;69759.91;2057795;28;20691;-72
2022/07/27 03:49:08;;;;;;;18.10;13.47;;;;;;;-144.27;100.00;69759.91;2057877;28;20559;-73
2022/07/27 03:50:09;;;;;;;19.33;13.82;;;;;;;-144.27;100.00;69759.91;2066601;28;20201;-73
2022/07/27 03:51:11;;;;;;;16.90;13.03;;;;;;;-144.27;100.00;69759.91;2057225;28;20311;-73
2022/07/27 03:52:12;;;;;;;17.90;13.65;;;;;;;-144.27;100.00;69759.91;2058032;28;20178;-73
2022/07/27 03:53:16;;;;;;;19.40;14.40;;;;;;;-144.27;100.00;69759.91;2066536;28;20578;-73
2022/07/27 03:54:19;;;;;;;18.77;14.32;;;;;;;-144.27;100.00;69759.91;2066475;28;20177;-73
2022/07/27 03:55:21;;;;;;;20.87;13.07;;;;;;;-144.27;100.00;69759.91;2057731;28;20276;-73
2022/07/27 03:56:23;;;;;;;18.85;14.15;;;;;;;-144.27;100.00;69759.91;2057696;28;20229;-73
2022/07/27 03:57:28;;;;;;;19.35;14.10;;;;;;;-144.27;100.00;69759.91;2057875;28;20189;-72
2022/07/27 03:58:29;;;;;;;20.48;14.50;;;;;;;-144.27;100.00;69759.91;2066536;28;20189;-72
2022/07/27 03:59:31;;;;;;;16.30;13.80;;;;;;;-144.27;100.00;69759.91;2066442;28;20197;-73
2022/07/27 04:00:31;;;;;;;17.98;14.65;;;;;;;-144.27;100.00;69759.91;2066352;28;20679;-72
2022/07/27 04:01:33;;;;;;;24.03;13.67;;;;;;;-144.27;100.00;69759.91;2066524;28;20201;-72
2022/07/27 04:02:33;;;;;;;17.27;14.38;;;;;;;-144.27;100.00;69759.91;2057609;28;20237;-73
2022/07/27 04:03:35;;;;;;;18.83;13.87;;;;;;;-144.27;100.00;69759.91;2057800;28;20194;-74
2022/07/27 04:04:36;;;;;;;17.13;13.68;;;;;;;-144.27;100.00;69759.91;2066550;28;20251;-74
2022/07/27 04:05:38;;;;;;;15.50;13.90;;;;;;;-144.27;100.00;69759.91;2066198;28;20252;-72
2022/07/27 04:06:39;;;;;;;16.45;13.35;;;;;;;-144.27;100.00;69759.91;2066033;28;20229;-72
2022/07/27 04:07:41;;;;;;;21.57;14.37;;;;;;;-144.27;100.00;69759.91;2066533;28;20220;-72
2022/07/27 04:08:41;;;;;;;18.77;14.45;;;;;;;-144.27;100.00;69759.91;2066311;28;20192;-72
2022/07/27 04:09:43;;;;;;;19.27;14.20;;;;;;;-144.27;100.00;69759.91;2066279;28;20280;-73
2022/07/27 04:10:46;;;;;;;17.92;14.13;;;;;;;-144.27;100.00;69759.91;2066321;28;20244;-72
2022/07/27 04:11:52;;;;;;;19.63;14.88;;;;;;;-144.27;100.00;69759.91;2057250;28;20201;-74
2022/07/27 04:12:53;;;;;;;20.05;13.60;;;;;;;-144.27;100.00;69759.91;2058092;28;20201;-73
2022/07/27 04:13:56;;;;;;;16.87;13.03;;;;;;;-144.27;100.00;69759.91;2065888;28;20177;-73
2022/07/27 04:14:57;;;;;;;18.77;12.93;;;;;;;-144.27;100.00;69759.91;2066317;28;20213;-75
2022/07/27 04:15:58;;;;;;;26.10;13.77;;;;;;;-144.27;100.00;69759.91;2066280;28;20272;-74
2022/07/27 04:16:59;;;;;;;17.95;13.50;;;;;;;-144.27;100.00;69759.91;2066099;28;20587;-73
2022/07/27 04:18:02;;;;;;;15.90;13.03;;;;;;;-144.27;100.00;69759.91;2066319;28;20185;-73
2022/07/27 04:19:03;;;;;;;25.17;14.50;;;;;;;-144.27;100.00;69759.91;2066245;28;20319;-73
2022/07/27 04:20:06;;;;;;;17.30;13.07;;;;;;;-144.27;100.00;69759.91;2066204;28;20671;-73
2022/07/27 04:21:07;;;;;;;16.02;13.05;;;;;;;-144.27;100.00;69759.91;2065654;28;20217;-74
2022/07/27 04:22:08;;;;;;;22.33;13.10;;;;;;;-144.27;100.00;69759.91;2057292;28;20206;-74
2022/07/27 04:23:09;;;;;;;16.65;12.93;;;;;;;-144.27;100.00;69759.91;2057653;28;20196;-73
2022/07/27 04:24:10;;;;;;;20.27;13.40;;;;;;;-144.27;100.00;69759.91;2066381;28;20195;-72
2022/07/27 04:25:13;;;;;;;19.15;13.00;;;;;;;-144.27;100.00;69759.91;2066184;28;20200;-72
2022/07/27 04:26:16;;;;;;;14.95;12.95;;;;;;;-144.27;100.00;69759.91;2057466;28;20205;-73
2022/07/27 04:27:18;;;;;;;22.60;13.43;;;;;;;-144.27;100.00;69759.91;2057755;28;20193;-72
2022/07/27 04:28:20;;;;;;;17.05;13.00;;;;;;;-144.27;100.00;69759.91;2066352;28;20197;-73
2022/07/27 04:29:21;;;;;;;16.50;12.90;;;;;;;-144.27;100.00;69759.91;2057448;28;20202;-73
2022/07/27 04:30:23;;;;;;;19.67;14.00;;;;;;;-144.27;100.00;69759.91;2057452;28;20201;-73
2022/07/27 04:31:24;;;;;;;15.75;12.98;;;;;;;-144.27;100.00;69759.91;2057567;28;20698;-72
2022/07/27 04:32:26;;;;;;;15.05;13.45;;;;;;;-144.27;100.00;69759.91;2066115;28;20187;-73
2022/07/27 04:33:28;;;;;;;18.30;13.45;;;;;;;-144.27;100.00;69759.91;2066247;28;20197;-74
2022/07/27 04:34:30;;;;;;;15.65;13.68;;;;;;;-144.27;100.00;69759.91;2066300;28;20659;-74
2022/07/27 04:35:30;;;;;;;17.77;12.45;;;;;;;-144.27;100.00;69759.91;2057415;28;20205;-73
2022/07/27 04:36:32;;;;;;;19.73;13.67;;;;;;;-144.27;100.00;69759.91;2057143;28;20292;-73
2022/07/27 04:37:33;;;;;;;17.42;12.85;;;;;;;-144.27;100.00;69759.91;2057392;28;20553;-73